Megalon — 3ETX2 — position and weather

sailwx.info

Track history (hours):
 
Tides and Currents Weather Stations Pressure Air Temp Water Temp Dewpoint Dewpoint Depression Visibility Wind Speed Wind Dir Waves Ship Positions

Megalon

Last reported at 2016-Dec-08 15:08 UTC. Time now 2016-Dec-09 07:44 UTC.
Position N 35°58' W 005°38'.

Length 140 m; draft 8.6 m.

Type: Cargo ship. MMSI: 372427000.

Date/timePositionNaut miles runAvg speedWind from/ knotsBaromVisibWave heightAir tempDewpointWater temp
2016-Dec-08 15:08N 35°58' W 005°38'711.8
2016-Dec-08 14:33N 35°59' W 005°29'1211.9
2016-Dec-08 13:33N 36°02' W 005°15'  
2016-Dec-05 15:30N 37°23' W 000°59'1212.9
2016-Dec-05 14:33N 37°29' W 000°45'1312.9
2016-Dec-05 13:33N 37°36' W 000°32'2813.4
2016-Dec-05 11:28N 37°60' W 000°13'11813.0
2016-Dec-05 02:24N 39°42' E 001°02'1312.6
2016-Dec-05 01:21N 39°54' E 001°07'1012.9
2016-Dec-05 00:33N 40°04' E 001°11'1312.8
2016-Dec-04 23:33N 40°17' E 001°16'8 7.9
2016-Dec-04 22:32N 40°24' E 001°20'3 2.1
2016-Dec-04 21:12N 40°26' E 001°23'2 2.2
2016-Dec-04 20:24N 40°27' E 001°25'2 2.0
2016-Dec-04 19:33N 40°28' E 001°26'2 1.8
2016-Dec-04 18:33N 40°29' E 001°29'2 1.7
2016-Dec-04 17:33N 40°29' E 001°31'2 1.5
2016-Dec-04 16:33N 40°30' E 001°33'1 1.5
2016-Dec-04 15:33N 40°30' E 001°34'1 1.5
2016-Dec-04 14:33N 40°30' E 001°36'1 1.3
2016-Dec-04 13:34N 40°30' E 001°38'1 0.8
2016-Dec-04 12:33N 40°30' E 001°39'1111.1
2016-Dec-04 11:33N 40°40' E 001°46'1212.2
2016-Dec-04 10:33N 40°50' E 001°55'1312.7
2016-Dec-04 09:31N 41°01' E 002°04'  
2016-Nov-30 11:32N 43°22' E 003°45'  
Track history (hours):
 
Tides and Currents Weather Stations Pressure Air Temp Water Temp Dewpoint Dewpoint Depression Visibility Wind Speed Wind Dir Waves Ship Positions

Megalon

Last reported at 2016-Dec-08 15:08 UTC. Time now 2016-Dec-09 07:44 UTC.
Position N 35°58' W 005°38'.

Length 140 m; draft 8.6 m.

Type: Cargo ship. MMSI: 372427000.

Date/timePositionNaut miles runAvg speedWind from/ knotsBaromVisibWave heightAir tempDewpointWater temp
2016-Dec-08 15:08N 35°58' W 005°38'711.8
2016-Dec-08 14:33N 35°59' W 005°29'1211.9
2016-Dec-08 13:33N 36°02' W 005°15'  
2016-Dec-05 15:30N 37°23' W 000°59'1212.9
2016-Dec-05 14:33N 37°29' W 000°45'1312.9
2016-Dec-05 13:33N 37°36' W 000°32'2813.4
2016-Dec-05 11:28N 37°60' W 000°13'11813.0
2016-Dec-05 02:24N 39°42' E 001°02'1312.6
2016-Dec-05 01:21N 39°54' E 001°07'1012.9
2016-Dec-05 00:33N 40°04' E 001°11'1312.8
2016-Dec-04 23:33N 40°17' E 001°16'8 7.9
2016-Dec-04 22:32N 40°24' E 001°20'3 2.1
2016-Dec-04 21:12N 40°26' E 001°23'2 2.2
2016-Dec-04 20:24N 40°27' E 001°25'2 2.0
2016-Dec-04 19:33N 40°28' E 001°26'2 1.8
2016-Dec-04 18:33N 40°29' E 001°29'2 1.7
2016-Dec-04 17:33N 40°29' E 001°31'2 1.5
2016-Dec-04 16:33N 40°30' E 001°33'1 1.5
2016-Dec-04 15:33N 40°30' E 001°34'1 1.5
2016-Dec-04 14:33N 40°30' E 001°36'1 1.3
2016-Dec-04 13:34N 40°30' E 001°38'1 0.8
2016-Dec-04 12:33N 40°30' E 001°39'1111.1
2016-Dec-04 11:33N 40°40' E 001°46'1212.2
2016-Dec-04 10:33N 40°50' E 001°55'1312.7
2016-Dec-04 09:31N 41°01' E 002°04'  
2016-Nov-30 11:32N 43°22' E 003°45'  

Dump ship's entire track history